sensor_id;sensor_type;location;lat;lon;timestamp;P1;durP1;ratioP1;P2;durP2;ratioP2
68940;SDS011;55982;51.476;7.552;2023-07-20T00:02:05;31.95;;;20.13;;
68940;SDS011;55982;51.476;7.552;2023-07-20T00:04:32;32.00;;;20.33;;
68940;SDS011;55982;51.476;7.552;2023-07-20T00:06:57;32.45;;;20.10;;
68940;SDS011;55982;51.476;7.552;2023-07-20T00:09:24;31.95;;;20.40;;
68940;SDS011;55982;51.476;7.552;2023-07-20T00:11:50;28.58;;;19.70;;
68940;SDS011;55982;51.476;7.552;2023-07-20T00:14:16;30.70;;;19.50;;
68940;SDS011;55982;51.476;7.552;2023-07-20T00:16:43;28.05;;;20.17;;
68940;SDS011;55982;51.476;7.552;2023-07-20T00:19:08;31.02;;;20.77;;
68940;SDS011;55982;51.476;7.552;2023-07-20T00:21:35;28.38;;;20.20;;
68940;SDS011;55982;51.476;7.552;2023-07-20T00:24:00;27.52;;;20.35;;
68940;SDS011;55982;51.476;7.552;2023-07-20T00:26:26;32.35;;;21.42;;
68940;SDS011;55982;51.476;7.552;2023-07-20T00:28:51;33.30;;;22.33;;
68940;SDS011;55982;51.476;7.552;2023-07-20T00:31:17;31.27;;;21.98;;
68940;SDS011;55982;51.476;7.552;2023-07-20T00:33:42;37.92;;;21.80;;
68940;SDS011;55982;51.476;7.552;2023-07-20T00:36:07;37.38;;;21.33;;
68940;SDS011;55982;51.476;7.552;2023-07-20T00:38:33;32.50;;;22.08;;
68940;SDS011;55982;51.476;7.552;2023-07-20T00:40:58;34.47;;;20.30;;
68940;SDS011;55982;51.476;7.552;2023-07-20T00:43:23;31.92;;;19.98;;
68940;SDS011;55982;51.476;7.552;2023-07-20T00:45:49;32.58;;;20.95;;
68940;SDS011;55982;51.476;7.552;2023-07-20T00:48:14;32.83;;;20.98;;
68940;SDS011;55982;51.476;7.552;2023-07-20T00:50:40;30.38;;;20.73;;
68940;SDS011;55982;51.476;7.552;2023-07-20T00:53:06;34.08;;;21.08;;
68940;SDS011;55982;51.476;7.552;2023-07-20T00:55:32;33.30;;;21.65;;
68940;SDS011;55982;51.476;7.552;2023-07-20T00:57:59;28.48;;;20.48;;
68940;SDS011;55982;51.476;7.552;2023-07-20T01:00:24;30.05;;;20.77;;
68940;SDS011;55982;51.476;7.552;2023-07-20T01:02:50;28.98;;;19.63;;
68940;SDS011;55982;51.476;7.552;2023-07-20T01:05:16;27.35;;;18.52;;
68940;SDS011;55982;51.476;7.552;2023-07-20T01:10:56;29.45;;;19.15;;
68940;SDS011;55982;51.476;7.552;2023-07-20T01:13:29;28.42;;;18.75;;
68940;SDS011;55982;51.476;7.552;2023-07-20T01:15:57;29.50;;;18.95;;
68940;SDS011;55982;51.476;7.552;2023-07-20T01:18:26;30.52;;;18.83;;
68940;SDS011;55982;51.476;7.552;2023-07-20T01:20:51;29.48;;;18.48;;
68940;SDS011;55982;51.476;7.552;2023-07-20T01:23:27;32.63;;;18.48;;
68940;SDS011;55982;51.476;7.552;2023-07-20T01:31:28;26.55;;;17.00;;
68940;SDS011;55982;51.476;7.552;2023-07-20T01:33:57;28.88;;;17.17;;
68940;SDS011;55982;51.476;7.552;2023-07-20T01:36:26;28.58;;;17.90;;
68940;SDS011;55982;51.476;7.552;2023-07-20T01:38:54;30.88;;;18.50;;
68940;SDS011;55982;51.476;7.552;2023-07-20T01:41:21;30.15;;;19.23;;
68940;SDS011;55982;51.476;7.552;2023-07-20T01:43:46;32.03;;;20.48;;
68940;SDS011;55982;51.476;7.552;2023-07-20T01:46:12;29.27;;;19.58;;
68940;SDS011;55982;51.476;7.552;2023-07-20T01:48:37;34.70;;;21.08;;
68940;SDS011;55982;51.476;7.552;2023-07-20T01:51:03;29.95;;;19.67;;
68940;SDS011;55982;51.476;7.552;2023-07-20T01:53:28;33.92;;;19.65;;
68940;SDS011;55982;51.476;7.552;2023-07-20T01:55:53;39.05;;;21.27;;
68940;SDS011;55982;51.476;7.552;2023-07-20T01:58:19;38.28;;;22.33;;
68940;SDS011;55982;51.476;7.552;2023-07-20T02:00:45;35.05;;;21.50;;
68940;SDS011;55982;51.476;7.552;2023-07-20T02:03:10;38.17;;;23.00;;
68940;SDS011;55982;51.476;7.552;2023-07-20T02:05:37;34.45;;;22.02;;
68940;SDS011;55982;51.476;7.552;2023-07-20T02:08:02;35.40;;;21.42;;
68940;SDS011;55982;51.476;7.552;2023-07-20T02:10:28;35.60;;;21.77;;
68940;SDS011;55982;51.476;7.552;2023-07-20T02:12:53;33.10;;;20.80;;
68940;SDS011;55982;51.476;7.552;2023-07-20T02:15:18;38.00;;;21.17;;
68940;SDS011;55982;51.476;7.552;2023-07-20T02:17:44;38.42;;;22.70;;
68940;SDS011;55982;51.476;7.552;2023-07-20T02:20:10;40.88;;;21.98;;
68940;SDS011;55982;51.476;7.552;2023-07-20T02:22:39;35.00;;;22.88;;
68940;SDS011;55982;51.476;7.552;2023-07-20T02:25:05;39.95;;;22.70;;
68940;SDS011;55982;51.476;7.552;2023-07-20T02:27:32;40.88;;;23.80;;
68940;SDS011;55982;51.476;7.552;2023-07-20T02:29:58;41.92;;;23.67;;
68940;SDS011;55982;51.476;7.552;2023-07-20T02:32:23;35.33;;;22.85;;
68940;SDS011;55982;51.476;7.552;2023-07-20T02:34:48;39.80;;;23.52;;
68940;SDS011;55982;51.476;7.552;2023-07-20T02:37:14;42.40;;;23.52;;
68940;SDS011;55982;51.476;7.552;2023-07-20T02:39:39;46.03;;;25.40;;
68940;SDS011;55982;51.476;7.552;2023-07-20T02:42:05;41.42;;;24.55;;
68940;SDS011;55982;51.476;7.552;2023-07-20T02:44:31;40.30;;;24.08;;
68940;SDS011;55982;51.476;7.552;2023-07-20T02:46:56;42.78;;;25.77;;
68940;SDS011;55982;51.476;7.552;2023-07-20T02:49:21;47.28;;;26.00;;
68940;SDS011;55982;51.476;7.552;2023-07-20T02:51:47;40.65;;;26.48;;
68940;SDS011;55982;51.476;7.552;2023-07-20T02:54:12;45.67;;;25.15;;
68940;SDS011;55982;51.476;7.552;2023-07-20T02:56:37;46.20;;;26.77;;
68940;SDS011;55982;51.476;7.552;2023-07-20T02:59:03;49.90;;;27.20;;
68940;SDS011;55982;51.476;7.552;2023-07-20T03:01:29;40.90;;;24.92;;
68940;SDS011;55982;51.476;7.552;2023-07-20T03:03:54;41.30;;;25.42;;
68940;SDS011;55982;51.476;7.552;2023-07-20T03:06:20;38.33;;;23.20;;
68940;SDS011;55982;51.476;7.552;2023-07-20T03:08:46;39.60;;;22.48;;
68940;SDS011;55982;51.476;7.552;2023-07-20T03:11:17;38.25;;;21.55;;
68940;SDS011;55982;51.476;7.552;2023-07-20T03:13:43;42.05;;;22.10;;
68940;SDS011;55982;51.476;7.552;2023-07-20T03:16:10;34.90;;;21.05;;
68940;SDS011;55982;51.476;7.552;2023-07-20T03:18:39;41.70;;;21.70;;
68940;SDS011;55982;51.476;7.552;2023-07-20T03:21:05;36.58;;;20.60;;
68940;SDS011;55982;51.476;7.552;2023-07-20T03:23:32;38.97;;;21.70;;
68940;SDS011;55982;51.476;7.552;2023-07-20T03:25:58;37.35;;;20.40;;
68940;SDS011;55982;51.476;7.552;2023-07-20T03:28:23;36.58;;;20.92;;
68940;SDS011;55982;51.476;7.552;2023-07-20T03:31:06;37.78;;;20.88;;
68940;SDS011;55982;51.476;7.552;2023-07-20T03:33:32;37.67;;;20.50;;
68940;SDS011;55982;51.476;7.552;2023-07-20T03:35:59;38.38;;;22.40;;
68940;SDS011;55982;51.476;7.552;2023-07-20T03:38:25;37.80;;;21.67;;
68940;SDS011;55982;51.476;7.552;2023-07-20T03:40:53;37.83;;;21.73;;
68940;SDS011;55982;51.476;7.552;2023-07-20T03:43:19;47.42;;;22.77;;
68940;SDS011;55982;51.476;7.552;2023-07-20T03:45:45;36.55;;;21.90;;
68940;SDS011;55982;51.476;7.552;2023-07-20T03:48:12;38.75;;;21.67;;
68940;SDS011;55982;51.476;7.552;2023-07-20T03:50:38;35.75;;;20.33;;
68940;SDS011;55982;51.476;7.552;2023-07-20T03:53:04;36.58;;;18.98;;
68940;SDS011;55982;51.476;7.552;2023-07-20T03:55:29;30.92;;;19.10;;
68940;SDS011;55982;51.476;7.552;2023-07-20T03:57:55;34.38;;;18.38;;
68940;SDS011;55982;51.476;7.552;2023-07-20T04:00:20;30.02;;;17.63;;
68940;SDS011;55982;51.476;7.552;2023-07-20T04:02:46;32.10;;;18.65;;
68940;SDS011;55982;51.476;7.552;2023-07-20T04:05:11;31.38;;;19.30;;
68940;SDS011;55982;51.476;7.552;2023-07-20T04:07:36;31.85;;;17.85;;
68940;SDS011;55982;51.476;7.552;2023-07-20T04:10:02;30.55;;;18.90;;
68940;SDS011;55982;51.476;7.552;2023-07-20T04:12:27;34.70;;;19.95;;
68940;SDS011;55982;51.476;7.552;2023-07-20T04:17:20;31.90;;;20.42;;
68940;SDS011;55982;51.476;7.552;2023-07-20T04:19:45;34.45;;;20.95;;
68940;SDS011;55982;51.476;7.552;2023-07-20T04:22:11;41.67;;;21.05;;
68940;SDS011;55982;51.476;7.552;2023-07-20T04:24:36;41.47;;;23.35;;
68940;SDS011;55982;51.476;7.552;2023-07-20T04:27:02;39.85;;;21.33;;
68940;SDS011;55982;51.476;7.552;2023-07-20T04:29:28;42.70;;;23.17;;
68940;SDS011;55982;51.476;7.552;2023-07-20T04:31:53;33.63;;;21.63;;
68940;SDS011;55982;51.476;7.552;2023-07-20T04:34:19;43.20;;;23.48;;
68940;SDS011;55982;51.476;7.552;2023-07-20T04:36:44;33.45;;;21.98;;
68940;SDS011;55982;51.476;7.552;2023-07-20T04:39:10;38.75;;;22.42;;
68940;SDS011;55982;51.476;7.552;2023-07-20T04:41:35;37.00;;;22.15;;
68940;SDS011;55982;51.476;7.552;2023-07-20T04:44:00;38.72;;;22.27;;
68940;SDS011;55982;51.476;7.552;2023-07-20T04:46:26;39.58;;;24.85;;
68940;SDS011;55982;51.476;7.552;2023-07-20T04:48:51;42.50;;;24.00;;
68940;SDS011;55982;51.476;7.552;2023-07-20T04:51:17;41.70;;;24.67;;
68940;SDS011;55982;51.476;7.552;2023-07-20T04:53:46;44.92;;;24.55;;
68940;SDS011;55982;51.476;7.552;2023-07-20T04:56:12;44.63;;;25.27;;
68940;SDS011;55982;51.476;7.552;2023-07-20T04:58:37;47.55;;;25.83;;
68940;SDS011;55982;51.476;7.552;2023-07-20T05:01:03;45.05;;;26.52;;
68940;SDS011;55982;51.476;7.552;2023-07-20T05:03:28;47.17;;;25.88;;
68940;SDS011;55982;51.476;7.552;2023-07-20T05:05:54;46.42;;;26.80;;
68940;SDS011;55982;51.476;7.552;2023-07-20T05:08:19;51.03;;;27.40;;
68940;SDS011;55982;51.476;7.552;2023-07-20T05:10:47;50.63;;;29.77;;
68940;SDS011;55982;51.476;7.552;2023-07-20T05:13:13;54.85;;;31.23;;
68940;SDS011;55982;51.476;7.552;2023-07-20T05:15:38;57.50;;;30.88;;
68940;SDS011;55982;51.476;7.552;2023-07-20T05:18:04;47.30;;;29.42;;
68940;SDS011;55982;51.476;7.552;2023-07-20T05:20:29;44.67;;;28.67;;
68940;SDS011;55982;51.476;7.552;2023-07-20T05:22:56;38.83;;;25.58;;
68940;SDS011;55982;51.476;7.552;2023-07-20T05:25:22;36.05;;;24.08;;
68940;SDS011;55982;51.476;7.552;2023-07-20T05:27:47;27.17;;;20.23;;
68940;SDS011;55982;51.476;7.552;2023-07-20T05:30:13;26.67;;;19.35;;
68940;SDS011;55982;51.476;7.552;2023-07-20T05:32:38;23.77;;;17.08;;
68940;SDS011;55982;51.476;7.552;2023-07-20T05:35:04;24.10;;;16.25;;
68940;SDS011;55982;51.476;7.552;2023-07-20T05:37:30;25.10;;;15.63;;
68940;SDS011;55982;51.476;7.552;2023-07-20T05:39:55;17.85;;;13.73;;
68940;SDS011;55982;51.476;7.552;2023-07-20T05:42:21;17.80;;;13.15;;
68940;SDS011;55982;51.476;7.552;2023-07-20T05:44:46;19.98;;;13.27;;
68940;SDS011;55982;51.476;7.552;2023-07-20T05:47:17;18.13;;;13.32;;
68940;SDS011;55982;51.476;7.552;2023-07-20T05:49:43;16.55;;;13.10;;
68940;SDS011;55982;51.476;7.552;2023-07-20T05:52:08;19.67;;;13.13;;
68940;SDS011;55982;51.476;7.552;2023-07-20T05:54:34;16.40;;;11.93;;
68940;SDS011;55982;51.476;7.552;2023-07-20T05:56:59;15.63;;;11.48;;
68940;SDS011;55982;51.476;7.552;2023-07-20T05:59:24;15.15;;;11.20;;
68940;SDS011;55982;51.476;7.552;2023-07-20T06:01:54;14.23;;;10.57;;
68940;SDS011;55982;51.476;7.552;2023-07-20T06:04:19;13.85;;;11.43;;
68940;SDS011;55982;51.476;7.552;2023-07-20T06:06:45;14.98;;;11.00;;
68940;SDS011;55982;51.476;7.552;2023-07-20T06:09:11;14.00;;;9.70;;
68940;SDS011;55982;51.476;7.552;2023-07-20T06:11:37;11.70;;;9.35;;
68940;SDS011;55982;51.476;7.552;2023-07-20T06:14:03;11.52;;;9.45;;
68940;SDS011;55982;51.476;7.552;2023-07-20T06:16:28;11.77;;;9.07;;
68940;SDS011;55982;51.476;7.552;2023-07-20T06:18:54;9.95;;;8.82;;
68940;SDS011;55982;51.476;7.552;2023-07-20T06:21:19;9.68;;;8.15;;
68940;SDS011;55982;51.476;7.552;2023-07-20T06:23:44;11.45;;;7.57;;
68940;SDS011;55982;51.476;7.552;2023-07-20T06:26:11;11.50;;;7.80;;
68940;SDS011;55982;51.476;7.552;2023-07-20T06:28:36;7.80;;;6.60;;
68940;SDS011;55982;51.476;7.552;2023-07-20T06:31:02;8.88;;;6.70;;
68940;SDS011;55982;51.476;7.552;2023-07-20T06:33:28;8.75;;;7.18;;
68940;SDS011;55982;51.476;7.552;2023-07-20T06:35:54;7.18;;;6.47;;
68940;SDS011;55982;51.476;7.552;2023-07-20T06:38:20;8.80;;;6.55;;
68940;SDS011;55982;51.476;7.552;2023-07-20T06:40:46;8.32;;;6.15;;
68940;SDS011;55982;51.476;7.552;2023-07-20T06:43:11;7.93;;;6.13;;
68940;SDS011;55982;51.476;7.552;2023-07-20T06:45:37;8.73;;;6.75;;
68940;SDS011;55982;51.476;7.552;2023-07-20T06:48:02;7.25;;;5.05;;
68940;SDS011;55982;51.476;7.552;2023-07-20T06:50:28;5.60;;;5.05;;
68940;SDS011;55982;51.476;7.552;2023-07-20T06:52:53;8.80;;;5.90;;
68940;SDS011;55982;51.476;7.552;2023-07-20T06:55:19;7.20;;;5.22;;
68940;SDS011;55982;51.476;7.552;2023-07-20T06:57:44;7.65;;;5.47;;
68940;SDS011;55982;51.476;7.552;2023-07-20T07:00:10;6.18;;;5.18;;
68940;SDS011;55982;51.476;7.552;2023-07-20T07:02:36;6.38;;;5.60;;
68940;SDS011;55982;51.476;7.552;2023-07-20T07:05:01;8.32;;;6.22;;
68940;SDS011;55982;51.476;7.552;2023-07-20T07:07:27;7.80;;;6.40;;
68940;SDS011;55982;51.476;7.552;2023-07-20T07:09:52;6.80;;;5.72;;
68940;SDS011;55982;51.476;7.552;2023-07-20T07:12:17;5.70;;;5.15;;
68940;SDS011;55982;51.476;7.552;2023-07-20T07:14:43;5.75;;;4.70;;
68940;SDS011;55982;51.476;7.552;2023-07-20T07:17:08;5.72;;;4.30;;
68940;SDS011;55982;51.476;7.552;2023-07-20T07:19:33;3.58;;;3.28;;
68940;SDS011;55982;51.476;7.552;2023-07-20T07:21:59;4.82;;;3.45;;
68940;SDS011;55982;51.476;7.552;2023-07-20T07:24:24;4.00;;;3.50;;
68940;SDS011;55982;51.476;7.552;2023-07-20T07:26:49;4.95;;;4.18;;
68940;SDS011;55982;51.476;7.552;2023-07-20T07:29:15;4.88;;;3.83;;
68940;SDS011;55982;51.476;7.552;2023-07-20T07:31:40;6.97;;;5.05;;
68940;SDS011;55982;51.476;7.552;2023-07-20T07:34:05;8.45;;;5.50;;
68940;SDS011;55982;51.476;7.552;2023-07-20T07:36:31;8.73;;;6.80;;
68940;SDS011;55982;51.476;7.552;2023-07-20T07:38:57;8.80;;;6.35;;
68940;SDS011;55982;51.476;7.552;2023-07-20T07:41:22;10.80;;;8.65;;
68940;SDS011;55982;51.476;7.552;2023-07-20T07:43:48;17.40;;;13.25;;
68940;SDS011;55982;51.476;7.552;2023-07-20T07:46:13;13.90;;;11.98;;
68940;SDS011;55982;51.476;7.552;2023-07-20T07:48:39;13.00;;;10.75;;
68940;SDS011;55982;51.476;7.552;2023-07-20T07:51:04;9.68;;;8.32;;
68940;SDS011;55982;51.476;7.552;2023-07-20T07:53:30;8.35;;;7.32;;
68940;SDS011;55982;51.476;7.552;2023-07-20T07:55:55;6.80;;;5.78;;
68940;SDS011;55982;51.476;7.552;2023-07-20T07:58:20;7.07;;;6.38;;
68940;SDS011;55982;51.476;7.552;2023-07-20T08:00:46;8.10;;;6.70;;
68940;SDS011;55982;51.476;7.552;2023-07-20T08:03:13;6.15;;;5.47;;
68940;SDS011;55982;51.476;7.552;2023-07-20T08:05:38;4.47;;;4.07;;
68940;SDS011;55982;51.476;7.552;2023-07-20T08:08:03;5.25;;;3.95;;
68940;SDS011;55982;51.476;7.552;2023-07-20T08:10:29;5.22;;;3.65;;
68940;SDS011;55982;51.476;7.552;2023-07-20T08:12:55;15.63;;;4.32;;
68940;SDS011;55982;51.476;7.552;2023-07-20T08:15:20;36.08;;;4.53;;
68940;SDS011;55982;51.476;7.552;2023-07-20T08:17:46;50.70;;;5.60;;
68940;SDS011;55982;51.476;7.552;2023-07-20T08:20:13;15.77;;;4.15;;
68940;SDS011;55982;51.476;7.552;2023-07-20T08:22:41;3.60;;;2.20;;
68940;SDS011;55982;51.476;7.552;2023-07-20T08:25:06;2.28;;;2.08;;
68940;SDS011;55982;51.476;7.552;2023-07-20T08:27:32;4.47;;;2.50;;
68940;SDS011;55982;51.476;7.552;2023-07-20T08:29:58;3.97;;;2.75;;
68940;SDS011;55982;51.476;7.552;2023-07-20T08:32:23;4.72;;;4.18;;
68940;SDS011;55982;51.476;7.552;2023-07-20T08:34:48;5.85;;;4.28;;
68940;SDS011;55982;51.476;7.552;2023-07-20T08:37:14;5.10;;;4.60;;
68940;SDS011;55982;51.476;7.552;2023-07-20T08:39:39;5.35;;;4.07;;
68940;SDS011;55982;51.476;7.552;2023-07-20T08:42:05;4.20;;;3.50;;
68940;SDS011;55982;51.476;7.552;2023-07-20T08:44:34;3.75;;;3.30;;
68940;SDS011;55982;51.476;7.552;2023-07-20T08:47:02;3.47;;;2.55;;
68940;SDS011;55982;51.476;7.552;2023-07-20T08:49:29;3.05;;;2.50;;
68940;SDS011;55982;51.476;7.552;2023-07-20T08:51:56;2.20;;;1.73;;
68940;SDS011;55982;51.476;7.552;2023-07-20T08:54:22;3.83;;;1.80;;
68940;SDS011;55982;51.476;7.552;2023-07-20T08:56:49;3.45;;;1.50;;
68940;SDS011;55982;51.476;7.552;2023-07-20T08:59:16;3.08;;;1.23;;
68940;SDS011;55982;51.476;7.552;2023-07-20T09:01:43;4.82;;;1.30;;
68940;SDS011;55982;51.476;7.552;2023-07-20T09:04:10;2.47;;;1.40;;
68940;SDS011;55982;51.476;7.552;2023-07-20T09:06:36;2.65;;;1.50;;
68940;SDS011;55982;51.476;7.552;2023-07-20T09:09:02;2.65;;;1.20;;
68940;SDS011;55982;51.476;7.552;2023-07-20T09:11:27;2.47;;;1.20;;
68940;SDS011;55982;51.476;7.552;2023-07-20T09:14:02;0.93;;;0.70;;
68940;SDS011;55982;51.476;7.552;2023-07-20T09:16:30;1.50;;;0.73;;
68940;SDS011;55982;51.476;7.552;2023-07-20T09:18:57;3.92;;;1.00;;
68940;SDS011;55982;51.476;7.552;2023-07-20T09:21:28;0.82;;;0.70;;
68940;SDS011;55982;51.476;7.552;2023-07-20T09:23:58;1.95;;;1.10;;
68940;SDS011;55982;51.476;7.552;2023-07-20T09:26:24;2.25;;;1.13;;
68940;SDS011;55982;51.476;7.552;2023-07-20T09:28:51;1.08;;;0.90;;
68940;SDS011;55982;51.476;7.552;2023-07-20T09:31:18;1.20;;;1.10;;
68940;SDS011;55982;51.476;7.552;2023-07-20T09:33:47;1.75;;;1.30;;
68940;SDS011;55982;51.476;7.552;2023-07-20T09:36:14;2.22;;;1.17;;
68940;SDS011;55982;51.476;7.552;2023-07-20T09:38:41;1.08;;;0.90;;
68940;SDS011;55982;51.476;7.552;2023-07-20T09:41:07;2.78;;;1.02;;
68940;SDS011;55982;51.476;7.552;2023-07-20T09:43:36;1.45;;;0.90;;
68940;SDS011;55982;51.476;7.552;2023-07-20T09:46:02;1.85;;;0.80;;
68940;SDS011;55982;51.476;7.552;2023-07-20T09:48:27;1.60;;;0.80;;
68940;SDS011;55982;51.476;7.552;2023-07-20T09:50:53;0.70;;;0.70;;
68940;SDS011;55982;51.476;7.552;2023-07-20T09:53:19;1.15;;;0.70;;
68940;SDS011;55982;51.476;7.552;2023-07-20T09:55:46;1.08;;;0.80;;
68940;SDS011;55982;51.476;7.552;2023-07-20T09:58:13;0.52;;;0.50;;
68940;SDS011;55982;51.476;7.552;2023-07-20T10:00:41;0.43;;;0.40;;
68940;SDS011;55982;51.476;7.552;2023-07-20T10:03:13;0.50;;;0.40;;
68940;SDS011;55982;51.476;7.552;2023-07-20T10:05:43;1.50;;;0.40;;
68940;SDS011;55982;51.476;7.552;2023-07-20T10:08:16;2.15;;;0.52;;
68940;SDS011;55982;51.476;7.552;2023-07-20T10:10:44;0.80;;;0.43;;
68940;SDS011;55982;51.476;7.552;2023-07-20T10:13:13;1.85;;;0.55;;
68940;SDS011;55982;51.476;7.552;2023-07-20T10:15:50;3.22;;;0.68;;
68940;SDS011;55982;51.476;7.552;2023-07-20T10:18:25;1.50;;;0.77;;
68940;SDS011;55982;51.476;7.552;2023-07-20T10:20:54;0.70;;;0.70;;
68940;SDS011;55982;51.476;7.552;2023-07-20T10:23:21;1.42;;;0.60;;
68940;SDS011;55982;51.476;7.552;2023-07-20T10:25:48;0.77;;;0.50;;
68940;SDS011;55982;51.476;7.552;2023-07-20T10:28:14;1.30;;;0.60;;
68940;SDS011;55982;51.476;7.552;2023-07-20T10:30:40;0.55;;;0.43;;
68940;SDS011;55982;51.476;7.552;2023-07-20T10:33:07;0.77;;;0.40;;
68940;SDS011;55982;51.476;7.552;2023-07-20T10:38:45;0.50;;;0.50;;
68940;SDS011;55982;51.476;7.552;2023-07-20T10:41:19;0.93;;;0.40;;
68940;SDS011;55982;51.476;7.552;2023-07-20T10:43:58;0.85;;;0.50;;
68940;SDS011;55982;51.476;7.552;2023-07-20T10:46:34;0.95;;;0.40;;
68940;SDS011;55982;51.476;7.552;2023-07-20T10:49:10;0.50;;;0.38;;
68940;SDS011;55982;51.476;7.552;2023-07-20T10:51:46;1.38;;;0.35;;
68940;SDS011;55982;51.476;7.552;2023-07-20T10:56:42;0.82;;;0.32;;
68940;SDS011;55982;51.476;7.552;2023-07-20T11:01:46;0.40;;;0.40;;
68940;SDS011;55982;51.476;7.552;2023-07-20T11:04:14;1.55;;;0.70;;
68940;SDS011;55982;51.476;7.552;2023-07-20T11:06:43;0.50;;;0.50;;
68940;SDS011;55982;51.476;7.552;2023-07-20T11:09:18;0.70;;;0.52;;
68940;SDS011;55982;51.476;7.552;2023-07-20T11:11:54;0.50;;;0.50;;
68940;SDS011;55982;51.476;7.552;2023-07-20T11:14:35;0.68;;;0.52;;
68940;SDS011;55982;51.476;7.552;2023-07-20T11:17:12;1.70;;;0.57;;
68940;SDS011;55982;51.476;7.552;2023-07-20T11:19:39;0.55;;;0.55;;
68940;SDS011;55982;51.476;7.552;2023-07-20T11:22:08;0.40;;;0.40;;
68940;SDS011;55982;51.476;7.552;2023-07-20T11:24:34;1.35;;;0.60;;
68940;SDS011;55982;51.476;7.552;2023-07-20T11:27:04;1.55;;;0.47;;
68940;SDS011;55982;51.476;7.552;2023-07-20T11:29:37;0.45;;;0.40;;
68940;SDS011;55982;51.476;7.552;2023-07-20T11:32:03;0.77;;;0.50;;
68940;SDS011;55982;51.476;7.552;2023-07-20T11:34:30;3.08;;;0.70;;
68940;SDS011;55982;51.476;7.552;2023-07-20T11:36:56;0.80;;;0.70;;
68940;SDS011;55982;51.476;7.552;2023-07-20T11:39:22;0.70;;;0.70;;
68940;SDS011;55982;51.476;7.552;2023-07-20T11:41:53;1.10;;;0.68;;
68940;SDS011;55982;51.476;7.552;2023-07-20T11:44:23;2.15;;;0.88;;
68940;SDS011;55982;51.476;7.552;2023-07-20T11:46:59;0.90;;;0.70;;
68940;SDS011;55982;51.476;7.552;2023-07-20T11:49:35;4.80;;;0.90;;
68940;SDS011;55982;51.476;7.552;2023-07-20T11:52:02;1.17;;;1.10;;
68940;SDS011;55982;51.476;7.552;2023-07-20T11:54:29;5.72;;;1.35;;
68940;SDS011;55982;51.476;7.552;2023-07-20T11:56:55;2.08;;;1.10;;
68940;SDS011;55982;51.476;7.552;2023-07-20T11:59:23;1.58;;;1.25;;
68940;SDS011;55982;51.476;7.552;2023-07-20T12:01:48;2.20;;;1.27;;
68940;SDS011;55982;51.476;7.552;2023-07-20T12:04:14;1.23;;;1.10;;
68940;SDS011;55982;51.476;7.552;2023-07-20T12:06:40;0.90;;;0.90;;
68940;SDS011;55982;51.476;7.552;2023-07-20T12:09:05;1.40;;;1.00;;
68940;SDS011;55982;51.476;7.552;2023-07-20T12:11:34;0.80;;;0.80;;
68940;SDS011;55982;51.476;7.552;2023-07-20T12:14:00;2.00;;;0.80;;
68940;SDS011;55982;51.476;7.552;2023-07-20T12:16:27;1.25;;;0.98;;
68940;SDS011;55982;51.476;7.552;2023-07-20T12:19:03;0.90;;;0.90;;
68940;SDS011;55982;51.476;7.552;2023-07-20T12:23:56;1.33;;;1.10;;
68940;SDS011;55982;51.476;7.552;2023-07-20T12:26:23;2.42;;;1.00;;
68940;SDS011;55982;51.476;7.552;2023-07-20T12:28:50;1.65;;;1.50;;
68940;SDS011;55982;51.476;7.552;2023-07-20T12:31:15;1.42;;;1.33;;
68940;SDS011;55982;51.476;7.552;2023-07-20T12:33:41;1.33;;;1.23;;
68940;SDS011;55982;51.476;7.552;2023-07-20T12:36:08;1.08;;;1.02;;
68940;SDS011;55982;51.476;7.552;2023-07-20T12:38:36;1.17;;;1.08;;
68940;SDS011;55982;51.476;7.552;2023-07-20T12:41:02;3.03;;;1.33;;
68940;SDS011;55982;51.476;7.552;2023-07-20T12:43:28;2.95;;;1.02;;
68940;SDS011;55982;51.476;7.552;2023-07-20T12:45:54;2.30;;;1.17;;
68940;SDS011;55982;51.476;7.552;2023-07-20T12:48:19;1.13;;;1.00;;
68940;SDS011;55982;51.476;7.552;2023-07-20T12:50:45;1.75;;;1.00;;
68940;SDS011;55982;51.476;7.552;2023-07-20T12:53:14;1.40;;;1.00;;
68940;SDS011;55982;51.476;7.552;2023-07-20T12:55:39;1.42;;;1.10;;
68940;SDS011;55982;51.476;7.552;2023-07-20T12:58:06;1.50;;;1.40;;
68940;SDS011;55982;51.476;7.552;2023-07-20T13:00:33;0.80;;;0.80;;
68940;SDS011;55982;51.476;7.552;2023-07-20T13:03:02;0.85;;;0.85;;
68940;SDS011;55982;51.476;7.552;2023-07-20T13:05:30;0.98;;;0.90;;
68940;SDS011;55982;51.476;7.552;2023-07-20T13:07:57;0.77;;;0.77;;
68940;SDS011;55982;51.476;7.552;2023-07-20T13:10:23;2.50;;;1.13;;
68940;SDS011;55982;51.476;7.552;2023-07-20T13:12:49;0.80;;;0.70;;
68940;SDS011;55982;51.476;7.552;2023-07-20T13:15:16;2.75;;;0.93;;
68940;SDS011;55982;51.476;7.552;2023-07-20T13:17:42;1.13;;;1.00;;
68940;SDS011;55982;51.476;7.552;2023-07-20T13:20:08;1.38;;;0.80;;
68940;SDS011;55982;51.476;7.552;2023-07-20T13:22:36;0.93;;;0.90;;
68940;SDS011;55982;51.476;7.552;2023-07-20T13:25:02;1.65;;;0.80;;
68940;SDS011;55982;51.476;7.552;2023-07-20T13:27:28;1.27;;;0.77;;
68940;SDS011;55982;51.476;7.552;2023-07-20T13:29:53;0.95;;;0.80;;
68940;SDS011;55982;51.476;7.552;2023-07-20T13:32:19;1.33;;;0.93;;
68940;SDS011;55982;51.476;7.552;2023-07-20T13:34:44;0.73;;;0.73;;
68940;SDS011;55982;51.476;7.552;2023-07-20T13:37:10;1.35;;;0.80;;
68940;SDS011;55982;51.476;7.552;2023-07-20T13:39:36;0.80;;;0.80;;
68940;SDS011;55982;51.476;7.552;2023-07-20T13:42:02;1.67;;;0.75;;
68940;SDS011;55982;51.476;7.552;2023-07-20T13:44:30;1.13;;;1.10;;
68940;SDS011;55982;51.476;7.552;2023-07-20T13:46:56;1.27;;;1.17;;
68940;SDS011;55982;51.476;7.552;2023-07-20T13:49:21;2.20;;;1.20;;
68940;SDS011;55982;51.476;7.552;2023-07-20T13:51:47;1.38;;;1.05;;
68940;SDS011;55982;51.476;7.552;2023-07-20T13:54:12;1.25;;;1.15;;
68940;SDS011;55982;51.476;7.552;2023-07-20T13:56:37;1.30;;;1.20;;
68940;SDS011;55982;51.476;7.552;2023-07-20T13:59:03;0.90;;;0.90;;
68940;SDS011;55982;51.476;7.552;2023-07-20T14:01:28;3.42;;;1.20;;
68940;SDS011;55982;51.476;7.552;2023-07-20T14:03:55;1.52;;;1.42;;
68940;SDS011;55982;51.476;7.552;2023-07-20T14:06:21;1.77;;;1.13;;
68940;SDS011;55982;51.476;7.552;2023-07-20T14:08:46;1.63;;;1.10;;
68940;SDS011;55982;51.476;7.552;2023-07-20T14:11:13;3.67;;;1.20;;
68940;SDS011;55982;51.476;7.552;2023-07-20T14:13:39;5.25;;;1.50;;
68940;SDS011;55982;51.476;7.552;2023-07-20T14:16:05;1.75;;;1.20;;
68940;SDS011;55982;51.476;7.552;2023-07-20T14:18:30;1.20;;;1.10;;
68940;SDS011;55982;51.476;7.552;2023-07-20T14:20:56;2.38;;;1.20;;
68940;SDS011;55982;51.476;7.552;2023-07-20T14:23:21;1.30;;;1.20;;
68940;SDS011;55982;51.476;7.552;2023-07-20T14:25:47;2.85;;;1.38;;
68940;SDS011;55982;51.476;7.552;2023-07-20T14:28:13;1.20;;;1.10;;
68940;SDS011;55982;51.476;7.552;2023-07-20T14:30:39;1.20;;;1.10;;
68940;SDS011;55982;51.476;7.552;2023-07-20T14:33:05;2.08;;;1.10;;
68940;SDS011;55982;51.476;7.552;2023-07-20T14:35:30;3.22;;;1.20;;
68940;SDS011;55982;51.476;7.552;2023-07-20T14:37:56;1.20;;;1.10;;
68940;SDS011;55982;51.476;7.552;2023-07-20T14:40:21;2.92;;;1.00;;
68940;SDS011;55982;51.476;7.552;2023-07-20T14:42:46;1.25;;;1.10;;
68940;SDS011;55982;51.476;7.552;2023-07-20T14:45:12;1.23;;;1.15;;
68940;SDS011;55982;51.476;7.552;2023-07-20T14:47:37;1.20;;;1.10;;
68940;SDS011;55982;51.476;7.552;2023-07-20T14:50:02;1.48;;;0.90;;
68940;SDS011;55982;51.476;7.552;2023-07-20T14:52:28;1.10;;;1.00;;
68940;SDS011;55982;51.476;7.552;2023-07-20T14:54:54;1.13;;;1.05;;